createdAt,value
2022-10-03T00:02:27.488Z,0.50
2022-10-03T00:05:19.907Z,0.83
2022-10-03T00:07:55.561Z,0.50
2022-10-03T00:11:05.448Z,1.00
2022-10-03T00:13:41.095Z,0.60
2022-10-03T00:16:38.941Z,1.00
2022-10-03T00:19:20.777Z,0.73
2022-10-03T00:22:11.823Z,0.67
2022-10-03T00:25:19.834Z,0.50
2022-10-03T00:27:54.266Z,0.60
2022-10-03T00:30:24.783Z,0.80
2022-10-03T00:33:43.836Z,0.63
2022-10-03T00:36:24.998Z,0.60
2022-10-03T00:39:17.756Z,0.50
2022-10-03T00:42:02.705Z,0.80
2022-10-03T00:44:51.143Z,0.53
2022-10-03T00:47:47.047Z,0.67
2022-10-03T00:50:25.703Z,0.50
2022-10-03T00:53:10.973Z,0.50
2022-10-03T00:55:40.512Z,0.90
2022-10-03T00:58:10.002Z,0.60
2022-10-03T01:00:36.972Z,0.43
2022-10-03T01:03:22.369Z,0.67
2022-10-03T01:06:09.796Z,0.70
2022-10-03T01:09:09.468Z,0.80
2022-10-03T01:11:50.765Z,0.50
2022-10-03T01:14:38.881Z,0.43
2022-10-03T01:17:14.549Z,0.73
2022-10-03T01:20:06.345Z,0.63
2022-10-03T01:23:02.881Z,0.67
2022-10-03T01:25:59.899Z,0.53
2022-10-03T01:28:59.851Z,0.77
2022-10-03T01:31:42.670Z,0.50
2022-10-03T01:34:17.397Z,0.73
2022-10-03T01:37:06.233Z,0.67
2022-10-03T01:39:47.807Z,0.70
2022-10-03T01:42:35.371Z,0.50
2022-10-03T01:45:15.123Z,0.50
2022-10-03T01:48:00.586Z,0.70
2022-10-03T01:50:37.127Z,0.53
2022-10-03T01:53:34.008Z,0.53
2022-10-03T01:56:15.981Z,0.67
2022-10-03T01:59:03.493Z,0.40
2022-10-03T02:01:30.355Z,0.60
2022-10-03T02:04:16.432Z,0.60
2022-10-03T02:07:12.073Z,0.60
2022-10-03T02:09:52.105Z,0.40
2022-10-03T02:12:26.917Z,0.50
2022-10-03T02:15:05.932Z,0.20
2022-10-03T02:17:35.451Z,0.40
2022-10-03T02:20:11.970Z,0.30
2022-10-03T02:22:43.726Z,0.40
2022-10-03T02:25:21.727Z,0.70
2022-10-03T02:28:13.257Z,0.30
2022-10-03T02:30:54.975Z,0.30
2022-10-03T02:33:44.545Z,0.30
2022-10-03T02:36:27.332Z,0.37
2022-10-03T02:39:25.713Z,0.10
2022-10-03T02:42:30.238Z,0.23
2022-10-03T02:45:13.380Z,0.23
2022-10-03T02:48:30.704Z,0.27
2022-10-03T02:51:33.562Z,0.20
2022-10-03T02:54:23.559Z,0.10
2022-10-03T02:56:50.342Z,0.20
2022-10-03T02:59:42.729Z,0.30
2022-10-03T03:02:44.139Z,0.20
2022-10-03T03:05:48.909Z,0.27
2022-10-03T03:08:18.876Z,0.40
2022-10-03T03:11:08.629Z,0.20
2022-10-03T03:14:24.387Z,0.27
2022-10-03T03:17:16.437Z,0.20
2022-10-03T03:20:15.905Z,0.30
2022-10-03T03:23:09.665Z,0.10
2022-10-03T03:25:48.426Z,0.20
2022-10-03T03:28:45.309Z,0.20
2022-10-03T03:31:21.282Z,0.20
2022-10-03T03:34:16.397Z,0.10
2022-10-03T03:36:45.930Z,0.20
2022-10-03T03:39:27.756Z,0.30
2022-10-03T03:42:18.441Z,0.30
2022-10-03T03:45:21.738Z,0.30
2022-10-03T03:47:57.125Z,0.33
2022-10-03T03:50:30.014Z,0.40
2022-10-03T03:53:13.122Z,0.13
2022-10-03T03:55:59.425Z,0.10
2022-10-03T03:58:45.317Z,0.10
2022-10-03T04:01:37.047Z,0.10
2022-10-03T04:04:22.743Z,0.17
2022-10-03T04:07:17.213Z,0.27
2022-10-03T04:10:06.207Z,0.43
2022-10-03T04:12:50.555Z,0.30
2022-10-03T04:15:42.169Z,0.30
2022-10-03T04:18:55.637Z,0.30
2022-10-03T04:21:50.640Z,0.20
2022-10-03T04:24:36.831Z,0.10
2022-10-03T04:27:31.307Z,0.20
2022-10-03T04:29:58.339Z,0.17
2022-10-03T04:32:35.422Z,0.30
2022-10-03T04:35:15.102Z,0.43
2022-10-03T04:37:41.950Z,0.50
2022-10-03T04:40:35.960Z,0.60
2022-10-03T04:43:18.947Z,0.60
2022-10-03T04:45:55.138Z,0.40
2022-10-03T04:48:29.012Z,0.50
2022-10-03T04:51:16.137Z,0.50
2022-10-03T04:54:04.793Z,0.47
2022-10-03T04:56:50.954Z,0.60
2022-10-03T04:59:47.238Z,0.80
2022-10-03T05:02:15.292Z,0.67
2022-10-03T05:05:13.388Z,0.67
2022-10-03T05:07:53.376Z,0.50
2022-10-03T05:10:49.314Z,0.50
2022-10-03T05:13:56.744Z,1.30
2022-10-03T05:16:43.220Z,1.80
2022-10-03T05:19:33.466Z,1.43
2022-10-03T05:22:37.835Z,1.40
2022-10-03T05:25:29.168Z,1.40
2022-10-03T05:28:38.960Z,1.20
2022-10-03T05:31:33.889Z,1.27
2022-10-03T05:34:28.358Z,1.20
2022-10-03T05:37:25.272Z,0.90
2022-10-03T05:40:00.951Z,1.00
2022-10-03T05:42:55.746Z,0.40
2022-10-03T05:45:48.745Z,0.53
2022-10-03T05:49:03.994Z,0.40
2022-10-03T05:51:50.309Z,0.50
2022-10-03T05:54:45.852Z,0.63
2022-10-03T05:57:41.662Z,0.70
2022-10-03T06:00:11.708Z,0.70
2022-10-03T06:03:12.260Z,0.70
2022-10-03T06:06:08.084Z,0.60
2022-10-03T06:09:07.686Z,0.60
2022-10-03T06:11:44.403Z,0.60
2022-10-03T06:14:14.297Z,0.70
2022-10-03T06:16:59.297Z,0.73
2022-10-03T06:19:55.444Z,0.60
2022-10-03T06:23:13.562Z,0.60
2022-10-03T06:25:46.176Z,0.63
2022-10-03T06:28:32.900Z,0.50
2022-10-03T06:31:13.381Z,0.60
2022-10-03T06:33:59.198Z,0.77
2022-10-03T06:36:52.273Z,0.67
2022-10-03T06:39:31.315Z,0.80
2022-10-03T06:42:16.970Z,0.60
2022-10-03T06:45:43.439Z,0.60
2022-10-03T06:48:25.471Z,0.57
2022-10-03T06:51:30.828Z,0.77
2022-10-03T06:54:06.615Z,0.73
2022-10-03T06:56:42.685Z,0.83
2022-10-03T06:59:39.670Z,0.90
2022-10-03T07:02:33.996Z,0.83
2022-10-03T07:05:40.708Z,0.80
2022-10-03T07:08:37.260Z,0.90
2022-10-03T07:11:08.599Z,0.63
2022-10-03T07:13:39.403Z,0.87
2022-10-03T07:16:44.854Z,0.53
2022-10-03T07:19:17.942Z,0.77
2022-10-03T07:22:22.052Z,0.60
2022-10-03T07:25:04.567Z,0.80
2022-10-03T07:27:37.839Z,0.73
2022-10-03T07:30:17.005Z,0.70
2022-10-03T07:33:12.190Z,0.80
2022-10-03T07:36:04.001Z,0.60
2022-10-03T07:38:58.390Z,0.80
2022-10-03T07:41:41.696Z,0.90
2022-10-03T07:44:16.270Z,0.80
2022-10-03T07:46:58.848Z,0.90
2022-10-03T07:50:10.242Z,0.90
2022-10-03T07:52:57.467Z,0.80
2022-10-03T07:56:07.196Z,1.10
2022-10-03T07:58:54.891Z,1.20
2022-10-03T08:01:24.577Z,1.13
2022-10-03T08:04:10.271Z,0.90
2022-10-03T08:06:44.975Z,0.93
2022-10-03T08:09:29.874Z,0.70
2022-10-03T08:12:16.160Z,0.77
2022-10-03T08:14:54.942Z,1.20
2022-10-03T08:17:34.248Z,1.00
2022-10-03T08:20:16.109Z,1.00
2022-10-03T08:22:53.803Z,0.87
2022-10-03T08:25:29.401Z,0.80
2022-10-03T08:28:21.014Z,1.27
2022-10-03T08:31:01.244Z,0.90
2022-10-03T08:34:05.919Z,1.40
2022-10-03T08:37:03.792Z,1.07
2022-10-03T08:39:47.979Z,1.00
2022-10-03T08:42:30.402Z,0.90
2022-10-03T08:45:21.965Z,0.90
2022-10-03T08:48:26.921Z,0.70
2022-10-03T08:51:39.895Z,1.00
2022-10-03T08:54:24.517Z,0.77
2022-10-03T08:57:22.434Z,0.77
2022-10-03T09:00:13.549Z,0.80
2022-10-03T09:06:19.957Z,0.60
2022-10-03T09:09:06.311Z,0.50
2022-10-03T09:11:54.936Z,0.50
2022-10-03T09:14:34.725Z,0.50
2022-10-03T09:17:23.218Z,0.80
2022-10-03T09:20:27.535Z,0.37
2022-10-03T09:23:05.995Z,1.07
2022-10-03T09:25:51.883Z,0.67
2022-10-03T09:28:48.193Z,0.67
2022-10-03T09:31:34.062Z,0.30
2022-10-03T09:34:24.071Z,0.40
2022-10-03T09:37:41.435Z,0.47
2022-10-03T09:40:32.645Z,0.90
2022-10-03T09:43:16.008Z,0.40
2022-10-03T09:45:51.432Z,0.60
2022-10-03T09:48:29.837Z,0.77
2022-10-03T09:51:27.020Z,0.53
2022-10-03T09:54:31.702Z,0.50
2022-10-03T09:57:04.472Z,0.53
2022-10-03T09:59:44.539Z,0.30
2022-10-03T10:02:38.703Z,0.43
2022-10-03T10:05:55.968Z,0.60
2022-10-03T10:08:31.678Z,0.50
2022-10-03T10:11:24.780Z,0.40
2022-10-03T10:14:09.698Z,1.37
2022-10-03T10:17:13.704Z,0.63
2022-10-03T10:19:52.033Z,0.60
2022-10-03T10:22:37.226Z,0.67
2022-10-03T10:25:20.675Z,0.70
2022-10-03T10:28:09.719Z,1.00
2022-10-03T10:31:10.607Z,0.60
2022-10-03T10:33:58.843Z,0.50
2022-10-03T10:36:45.018Z,0.67
2022-10-03T10:39:28.070Z,3.40
2022-10-03T10:42:00.868Z,0.90
2022-10-03T10:44:30.412Z,0.93
2022-10-03T10:47:09.395Z,0.50
2022-10-03T10:50:13.845Z,0.67
2022-10-03T10:53:18.495Z,0.60
2022-10-03T10:56:09.965Z,0.40
2022-10-03T10:59:09.268Z,0.50
2022-10-03T11:02:03.376Z,0.40
2022-10-03T11:05:07.962Z,0.70
2022-10-03T11:08:14.857Z,0.57
2022-10-03T11:10:52.579Z,0.40
2022-10-03T11:13:35.838Z,0.43
2022-10-03T11:16:08.409Z,0.63
2022-10-03T11:18:47.190Z,0.47
2022-10-03T11:21:19.835Z,0.87
2022-10-03T11:24:11.507Z,0.50
2022-10-03T11:27:22.894Z,0.40
2022-10-03T11:30:40.780Z,0.57
2022-10-03T11:33:35.632Z,0.70
2022-10-03T11:36:36.550Z,0.50
2022-10-03T11:39:07.558Z,0.60
2022-10-03T11:42:06.110Z,0.57
2022-10-03T11:45:14.822Z,0.43
2022-10-03T11:47:57.430Z,0.40
2022-10-03T11:50:45.513Z,0.97
2022-10-03T11:53:33.742Z,0.50
2022-10-03T11:56:09.665Z,0.53
2022-10-03T11:59:26.859Z,0.57
2022-10-03T12:02:12.730Z,0.50
2022-10-03T12:04:39.557Z,0.57
2022-10-03T12:07:39.382Z,0.70
2022-10-03T12:10:36.324Z,0.67
2022-10-03T12:13:09.117Z,0.60
2022-10-03T12:15:52.683Z,0.63
2022-10-03T12:18:43.620Z,0.43
2022-10-03T12:21:21.627Z,0.53
2022-10-03T12:24:13.496Z,0.60
2022-10-03T12:26:59.360Z,0.90
2022-10-03T12:29:31.515Z,1.07
2022-10-03T12:32:29.028Z,0.60
2022-10-03T12:35:19.929Z,0.50
2022-10-03T12:38:12.776Z,0.63
2022-10-03T12:40:45.259Z,0.63
2022-10-03T12:43:39.011Z,0.60
2022-10-03T12:46:16.013Z,0.43
2022-10-03T12:49:20.815Z,0.30
2022-10-03T12:52:01.504Z,0.70
2022-10-03T12:55:01.308Z,0.47
2022-10-03T12:57:46.195Z,0.67
2022-10-03T13:00:21.653Z,0.80
2022-10-03T13:03:41.037Z,0.63
2022-10-03T13:06:19.646Z,0.57
2022-10-03T13:09:06.957Z,0.60
2022-10-03T13:11:54.112Z,0.40
2022-10-03T13:14:45.872Z,0.50
2022-10-03T13:17:49.578Z,0.70
2022-10-03T13:20:23.413Z,0.60
2022-10-03T13:22:59.285Z,0.40
2022-10-03T13:25:49.450Z,0.60
2022-10-03T13:28:35.860Z,0.40
2022-10-03T13:31:34.611Z,0.67
2022-10-03T13:34:17.340Z,0.70
2022-10-03T13:36:56.264Z,0.70
2022-10-03T13:39:37.909Z,0.60
2022-10-03T13:42:33.668Z,0.50
2022-10-03T13:45:16.976Z,0.50
2022-10-03T13:48:07.680Z,1.10
2022-10-03T13:50:48.707Z,0.50
2022-10-03T13:53:40.635Z,0.60
2022-10-03T13:56:31.542Z,0.80
2022-10-03T13:59:26.798Z,0.87
2022-10-03T14:02:24.386Z,1.33
2022-10-03T14:05:42.418Z,0.43
2022-10-03T14:08:39.616Z,1.27
2022-10-03T14:11:26.269Z,0.40
2022-10-03T14:13:53.105Z,0.60
2022-10-03T14:16:25.481Z,0.70
2022-10-03T14:19:30.901Z,0.40
2022-10-03T14:22:11.418Z,0.70
2022-10-03T14:25:16.341Z,0.50
2022-10-03T14:27:48.966Z,0.70
2022-10-03T14:30:36.292Z,0.40
2022-10-03T14:33:20.415Z,0.50
2022-10-03T14:36:17.473Z,0.60
2022-10-03T14:38:58.838Z,1.07
2022-10-03T14:41:33.563Z,0.50
2022-10-03T14:44:12.681Z,0.57
2022-10-03T14:46:50.732Z,0.80
2022-10-03T14:49:51.043Z,0.67
2022-10-03T14:52:38.145Z,0.97
2022-10-03T14:55:30.392Z,0.80
2022-10-03T14:58:12.077Z,0.93
2022-10-03T15:00:45.841Z,0.80
2022-10-03T15:03:20.360Z,0.57
2022-10-03T15:06:17.514Z,0.50
2022-10-03T15:08:49.126Z,0.70
2022-10-03T15:11:21.603Z,1.07
2022-10-03T15:13:58.047Z,0.60
2022-10-03T15:16:26.481Z,0.77
2022-10-03T15:19:06.329Z,0.50
2022-10-03T15:21:34.776Z,0.50
2022-10-03T15:24:05.345Z,0.90
2022-10-03T15:26:37.482Z,0.67
2022-10-03T15:29:07.283Z,0.63
2022-10-03T15:31:40.781Z,0.50
2022-10-03T15:34:17.408Z,0.97
2022-10-03T15:36:50.224Z,0.70
2022-10-03T15:39:35.784Z,0.53
2022-10-03T15:42:20.066Z,0.80
2022-10-03T15:45:12.421Z,0.97
2022-10-03T15:47:46.603Z,0.70
2022-10-03T15:50:22.456Z,0.90
2022-10-03T15:53:24.252Z,0.70
2022-10-03T15:56:01.713Z,0.63
2022-10-03T15:58:36.716Z,0.60
2022-10-03T16:01:16.941Z,0.70
2022-10-03T16:03:47.894Z,0.70
2022-10-03T16:06:25.090Z,0.50
2022-10-03T16:09:03.908Z,0.40
2022-10-03T16:11:45.819Z,0.60
2022-10-03T16:14:26.575Z,0.40
2022-10-03T16:16:58.120Z,0.40
2022-10-03T16:19:27.877Z,0.40
2022-10-03T16:22:07.129Z,0.63
2022-10-03T16:24:40.158Z,0.40
2022-10-03T16:27:33.593Z,0.50
2022-10-03T16:30:19.071Z,0.40
2022-10-03T16:33:10.293Z,0.60
2022-10-03T16:35:43.576Z,0.60
2022-10-03T16:38:23.722Z,0.60
2022-10-03T16:40:55.050Z,0.70
2022-10-03T16:43:22.585Z,0.53
2022-10-03T16:45:49.731Z,0.60
2022-10-03T16:48:51.754Z,0.93
2022-10-03T16:51:20.430Z,0.97
2022-10-03T16:53:50.889Z,1.10
2022-10-03T16:56:23.449Z,1.20
2022-10-03T16:58:55.943Z,1.10
2022-10-03T17:01:33.371Z,1.90
2022-10-03T17:04:24.246Z,1.67
2022-10-03T17:06:55.633Z,2.83
2022-10-03T17:09:39.737Z,3.33
2022-10-03T17:12:14.470Z,3.23
2022-10-03T17:14:43.076Z,2.67
2022-10-03T17:17:39.675Z,1.77
2022-10-03T17:20:39.000Z,1.20
2022-10-03T17:23:15.872Z,1.00
2022-10-03T17:26:07.291Z,0.90
2022-10-03T17:28:47.807Z,0.93
2022-10-03T17:31:42.690Z,1.10
2022-10-03T17:34:24.278Z,0.97
2022-10-03T17:37:36.580Z,1.20
2022-10-03T17:40:28.626Z,0.97
2022-10-03T17:43:15.103Z,1.10
2022-10-03T17:45:50.623Z,1.17
2022-10-03T17:48:34.073Z,0.77
2022-10-03T17:51:40.393Z,0.80
2022-10-03T17:54:26.452Z,0.97
2022-10-03T17:57:17.659Z,0.90
2022-10-03T17:59:51.636Z,1.10
2022-10-03T18:02:49.002Z,0.90
2022-10-03T18:05:22.643Z,1.30
2022-10-03T18:07:54.513Z,1.17
2022-10-03T18:10:29.150Z,1.23
2022-10-03T18:13:00.395Z,1.10
2022-10-03T18:15:41.501Z,1.27
2022-10-03T18:18:40.248Z,0.87
2022-10-03T18:21:17.552Z,1.00
2022-10-03T18:24:14.879Z,1.40
2022-10-03T18:26:47.841Z,1.17
2022-10-03T18:29:36.653Z,1.33
2022-10-03T18:32:05.075Z,1.40
2022-10-03T18:34:45.049Z,1.27
2022-10-03T18:37:40.621Z,1.47
2022-10-03T18:40:34.006Z,1.30
2022-10-03T18:43:01.737Z,1.20
2022-10-03T18:45:33.384Z,1.77
2022-10-03T18:48:29.989Z,2.37
2022-10-03T18:51:10.295Z,2.40
2022-10-03T18:53:49.843Z,2.37
2022-10-03T18:56:24.429Z,2.67
2022-10-03T18:59:16.137Z,2.97
2022-10-03T19:01:59.459Z,2.50
2022-10-03T19:04:52.346Z,2.40
2022-10-03T19:07:26.020Z,2.40
2022-10-03T19:10:16.315Z,2.33
2022-10-03T19:13:05.803Z,2.70
2022-10-03T19:15:44.496Z,2.60
2022-10-03T19:18:27.630Z,2.20
2022-10-03T19:20:58.886Z,2.07
2022-10-03T19:23:35.425Z,2.23
2022-10-03T19:26:08.157Z,2.40
2022-10-03T19:28:39.783Z,2.57
2022-10-03T19:31:51.886Z,2.40
2022-10-03T19:34:58.882Z,2.50
2022-10-03T19:37:26.286Z,2.47
2022-10-03T19:39:53.626Z,2.03
2022-10-03T19:42:36.772Z,2.07
2022-10-03T19:45:04.330Z,2.17
2022-10-03T19:47:40.975Z,1.93
2022-10-03T19:50:38.009Z,2.20
2022-10-03T19:53:16.477Z,3.00
2022-10-03T19:55:46.126Z,2.47
2022-10-03T19:58:23.802Z,2.53
2022-10-03T20:00:54.494Z,2.40
2022-10-03T20:03:33.710Z,3.80
2022-10-03T20:06:04.446Z,3.63
2022-10-03T20:08:52.973Z,2.80
2022-10-03T20:11:32.113Z,2.43
2022-10-03T20:14:02.199Z,2.67
2022-10-03T20:16:35.740Z,2.33
2022-10-03T20:19:09.959Z,2.10
2022-10-03T20:21:37.436Z,2.70
2022-10-03T20:24:35.941Z,2.50
2022-10-03T20:27:09.005Z,2.10
2022-10-03T20:29:43.200Z,2.20
2022-10-03T20:32:15.545Z,2.23
2022-10-03T20:34:50.775Z,2.50
2022-10-03T20:37:26.406Z,2.50
2022-10-03T20:40:00.738Z,2.20
2022-10-03T20:42:31.005Z,2.00
2022-10-03T20:45:03.658Z,2.23
2022-10-03T20:47:57.805Z,2.50
2022-10-03T20:50:30.499Z,2.90
2022-10-03T20:53:02.958Z,2.77
2022-10-03T20:55:48.435Z,2.57
2022-10-03T20:58:29.820Z,2.50
2022-10-03T21:01:08.000Z,2.80
2022-10-03T21:03:41.933Z,2.53
2022-10-03T21:06:20.059Z,3.40
2022-10-03T21:08:48.032Z,2.73
2022-10-03T21:11:33.393Z,2.53
2022-10-03T21:14:04.831Z,3.30
2022-10-03T21:16:38.787Z,2.63
2022-10-03T21:19:17.706Z,2.90
2022-10-03T21:21:52.809Z,2.70
2022-10-03T21:24:28.833Z,2.80
2022-10-03T21:27:02.781Z,2.60
2022-10-03T21:29:31.945Z,2.90
2022-10-03T21:32:25.421Z,2.90
2022-10-03T21:35:11.388Z,3.03
2022-10-03T21:37:59.951Z,3.23
2022-10-03T21:40:47.114Z,2.70
2022-10-03T21:43:35.603Z,3.00
2022-10-03T21:46:27.284Z,4.07
2022-10-03T21:49:24.535Z,6.10
2022-10-03T21:52:13.076Z,3.33
2022-10-03T21:54:48.988Z,3.00
2022-10-03T21:57:21.788Z,2.70
2022-10-03T22:00:10.173Z,3.60
2022-10-03T22:03:01.163Z,2.50
2022-10-03T22:05:46.687Z,2.90
2022-10-03T22:08:20.303Z,2.57
2022-10-03T22:11:02.529Z,2.80
2022-10-03T22:13:34.909Z,2.70
2022-10-03T22:16:35.362Z,4.60
2022-10-03T22:19:17.345Z,6.57
2022-10-03T22:21:50.210Z,3.30
2022-10-03T22:24:29.493Z,3.20
2022-10-03T22:27:12.659Z,2.90
2022-10-03T22:29:39.570Z,2.60
2022-10-03T22:32:16.320Z,2.73
2022-10-03T22:35:01.623Z,2.30
2022-10-03T22:37:29.391Z,2.73
2022-10-03T22:40:00.118Z,2.67
2022-10-03T22:42:31.370Z,2.50
2022-10-03T22:44:58.502Z,2.77
2022-10-03T22:47:31.051Z,2.90
2022-10-03T22:50:02.714Z,2.60
2022-10-03T22:52:36.379Z,2.70
2022-10-03T22:55:06.834Z,2.73
2022-10-03T22:57:36.000Z,2.67
2022-10-03T23:00:08.865Z,2.60
2022-10-03T23:02:40.955Z,2.60
2022-10-03T23:05:16.430Z,2.83
2022-10-03T23:08:01.908Z,3.60
2022-10-03T23:10:39.096Z,2.40
2022-10-03T23:13:11.181Z,2.50
2022-10-03T23:15:42.112Z,2.70
2022-10-03T23:18:11.807Z,2.90
2022-10-03T23:21:12.898Z,2.90
2022-10-03T23:24:03.626Z,3.30
2022-10-03T23:26:47.183Z,3.10
2022-10-03T23:29:18.733Z,2.80
2022-10-03T23:32:04.872Z,3.03
2022-10-03T23:34:34.544Z,3.30
2022-10-03T23:37:20.995Z,2.93
2022-10-03T23:40:18.508Z,2.77
2022-10-03T23:42:46.235Z,3.33
2022-10-03T23:45:20.289Z,3.57
2022-10-03T23:47:53.981Z,2.97
2022-10-03T23:50:27.115Z,3.30
2022-10-03T23:52:57.630Z,3.20
2022-10-03T23:55:30.383Z,3.13
2022-10-03T23:57:57.805Z,3.03
